Ionia, Missouri
Current Conditions -  °F | °C
As of 11:53 PM on Saturday 25 Oct 2014 (Local Time) from KDMO Reporting Station
Clear Clear  
Wind Chill: 62°   Ceiling: Unl
Heat Index: 62°   Visibility: 8mi
Dew Point: 55°   Wind: 3mph
Humidity: 78%   Direction: 120°ESE
Pressure: 30.02"   Gusts: NA
Location:  38.5°N, 93.32°W
Report Text: KDMO 260453Z AUTO 12003KT 8SM CLR 17/13 A3002 RMK AO2 SLP161 T01670128
Loading
Personal Weather Stations






























Interactive Weather Map
Tropical Storm Tracking
New forecast layout! Learn more

10-Day Weather Forecast

Advertisements
Track Severe Weather on mobile